createdAt,value
2023-02-16T00:01:46.109Z,0.20
2023-02-16T00:04:19.038Z,0.16
2023-02-16T00:06:49.307Z,0.27
2023-02-16T00:09:18.067Z,0.27
2023-02-16T00:12:04.388Z,0.23
2023-02-16T00:14:35.002Z,0.27
2023-02-16T00:17:03.665Z,0.19
2023-02-16T00:19:35.492Z,0.20
2023-02-16T00:22:06.282Z,0.16
2023-02-16T00:24:34.865Z,0.17
2023-02-16T00:27:03.543Z,0.11
2023-02-16T00:29:33.704Z,0.05
2023-02-16T00:32:03.216Z,0.02
2023-02-16T00:34:33.643Z,0.06
2023-02-16T00:37:03.139Z,-0.08
2023-02-16T00:39:33.859Z,-0.06
2023-02-16T00:42:03.619Z,-0.09
2023-02-16T00:44:34.750Z,-0.09
2023-02-16T00:47:04.513Z,-0.07
2023-02-16T00:49:33.121Z,-0.25
2023-02-16T00:52:01.726Z,-0.12
2023-02-16T00:54:31.968Z,-0.10
2023-02-16T00:57:02.284Z,-0.06
2023-02-16T00:59:30.950Z,-0.10
2023-02-16T01:01:59.559Z,-0.08
2023-02-16T01:04:28.224Z,-0.12
2023-02-16T01:07:14.058Z,-0.18
2023-02-16T01:09:59.769Z,-0.10
2023-02-16T01:12:31.358Z,-0.14
2023-02-16T01:15:00.024Z,-0.15
2023-02-16T01:17:28.627Z,-0.24
2023-02-16T01:19:57.190Z,-0.26
2023-02-16T01:22:25.851Z,-0.27
2023-02-16T01:24:55.114Z,-0.24
2023-02-16T01:27:23.867Z,-0.33
2023-02-16T01:29:53.882Z,-0.33
2023-02-16T01:32:22.586Z,-0.42
2023-02-16T01:34:51.214Z,-0.41
2023-02-16T01:37:19.931Z,-0.43
2023-02-16T01:39:48.578Z,-0.37
2023-02-16T01:42:26.279Z,-0.41
2023-02-16T01:44:58.795Z,-0.41
2023-02-16T01:47:39.221Z,-0.47
2023-02-16T01:50:16.523Z,-0.45
2023-02-16T01:52:46.572Z,-0.47
2023-02-16T01:55:19.194Z,-0.47
2023-02-16T01:57:48.886Z,-0.53
2023-02-16T02:00:31.313Z,-0.60
2023-02-16T02:03:21.887Z,-0.51
2023-02-16T02:05:50.619Z,-0.59
2023-02-16T02:08:22.969Z,-0.51
2023-02-16T02:10:55.744Z,-0.58
2023-02-16T02:13:30.186Z,-0.61
2023-02-16T02:16:21.686Z,-0.60
2023-02-16T02:18:50.477Z,-0.54
2023-02-16T02:21:47.807Z,-0.61
2023-02-16T02:24:34.741Z,-0.68
2023-02-16T02:27:14.728Z,-0.70
2023-02-16T02:30:01.132Z,-0.68
2023-02-16T02:32:35.942Z,-0.76
2023-02-16T02:35:14.147Z,-0.81
2023-02-16T02:37:48.831Z,-0.88
2023-02-16T02:40:24.420Z,-0.82
2023-02-16T02:42:59.031Z,-0.92
2023-02-16T02:45:29.699Z,-0.90
2023-02-16T02:47:59.093Z,-0.97
2023-02-16T02:50:36.038Z,-0.99
2023-02-16T02:53:05.835Z,-1.01
2023-02-16T02:55:53.942Z,-1.01
2023-02-16T02:58:43.493Z,-0.91
2023-02-16T03:01:13.703Z,-0.96
2023-02-16T03:03:44.283Z,-0.90
2023-02-16T03:06:16.810Z,-0.93
2023-02-16T03:08:47.894Z,-0.93
2023-02-16T03:11:36.066Z,-0.94
2023-02-16T03:14:07.416Z,-1.00
2023-02-16T03:16:38.656Z,-1.01
2023-02-16T03:19:25.959Z,-1.05
2023-02-16T03:22:12.391Z,-1.06
2023-02-16T03:24:58.544Z,-1.08
2023-02-16T03:27:46.867Z,-1.09
2023-02-16T03:30:18.185Z,-1.13
2023-02-16T03:32:47.801Z,-1.07
2023-02-16T03:35:16.687Z,-1.17
2023-02-16T03:37:46.239Z,-1.14
2023-02-16T03:40:32.980Z,-1.18
2023-02-16T03:43:02.572Z,-1.27
2023-02-16T03:45:33.342Z,-1.35
2023-02-16T03:48:02.044Z,-1.39
2023-02-16T03:50:30.845Z,-1.36
2023-02-16T03:53:07.227Z,-1.34
2023-02-16T03:55:36.560Z,-1.30
2023-02-16T03:58:05.186Z,-1.27
2023-02-16T04:00:36.529Z,-1.46
2023-02-16T04:03:05.401Z,-1.35
2023-02-16T04:05:34.548Z,-1.36
2023-02-16T04:08:03.404Z,-1.39
2023-02-16T04:10:32.221Z,-1.43
2023-02-16T04:12:59.932Z,-1.41
2023-02-16T04:15:29.320Z,-1.42
2023-02-16T04:17:59.325Z,-1.46
2023-02-16T04:20:28.917Z,-1.53
2023-02-16T04:22:57.644Z,-1.50
2023-02-16T04:25:26.346Z,-1.55
2023-02-16T04:27:55.186Z,-1.56
2023-02-16T04:30:25.000Z,-1.47
2023-02-16T04:32:53.883Z,-1.57
2023-02-16T04:35:24.249Z,-1.72
2023-02-16T04:37:52.773Z,-2.00
2023-02-16T04:40:21.593Z,-1.94
2023-02-16T04:42:50.221Z,-1.85
2023-02-16T04:45:18.826Z,-1.93
2023-02-16T04:47:47.485Z,-2.05
2023-02-16T04:50:16.212Z,-1.90
2023-02-16T04:52:46.408Z,-1.90
2023-02-16T04:55:15.098Z,-1.93
2023-02-16T04:57:43.821Z,-1.94
2023-02-16T05:00:13.282Z,-1.89
2023-02-16T05:02:42.031Z,-2.01
2023-02-16T05:05:10.850Z,-2.02
2023-02-16T05:07:39.473Z,-1.99
2023-02-16T05:10:10.021Z,-1.98
2023-02-16T05:12:56.038Z,-1.93
2023-02-16T05:15:24.766Z,-1.99
2023-02-16T05:17:53.366Z,-1.96
2023-02-16T05:20:42.066Z,-2.09
2023-02-16T05:23:10.839Z,-2.01
2023-02-16T05:25:40.997Z,-2.06
2023-02-16T05:28:09.739Z,-2.00
2023-02-16T05:30:38.323Z,-2.14
2023-02-16T05:33:06.941Z,-2.02
2023-02-16T05:35:35.964Z,-2.03
2023-02-16T05:38:04.760Z,-2.00
2023-02-16T05:40:33.410Z,-2.18
2023-02-16T05:43:03.526Z,-2.02
2023-02-16T05:45:32.190Z,-2.02
2023-02-16T05:48:01.889Z,-2.05
2023-02-16T05:50:30.615Z,-2.24
2023-02-16T05:53:00.982Z,-1.95
2023-02-16T05:55:30.361Z,-1.85
2023-02-16T05:57:58.956Z,-1.78
2023-02-16T06:00:33.700Z,-1.82
2023-02-16T06:03:02.377Z,-1.72
2023-02-16T06:05:31.220Z,-1.58
2023-02-16T06:08:00.211Z,-1.43
2023-02-16T06:10:28.835Z,-1.30
2023-02-16T06:12:57.453Z,-1.21
2023-02-16T06:15:26.027Z,-1.08
2023-02-16T06:17:56.151Z,-1.02
2023-02-16T06:20:24.807Z,-0.91
2023-02-16T06:22:53.389Z,-0.86
2023-02-16T06:25:21.938Z,-0.78
2023-02-16T06:27:50.812Z,-0.69
2023-02-16T06:30:19.757Z,-0.53
2023-02-16T06:32:48.548Z,-0.33
2023-02-16T06:35:18.656Z,-0.17
2023-02-16T06:37:47.441Z,-0.01
2023-02-16T06:40:17.732Z,0.12
2023-02-16T06:42:46.648Z,0.29
2023-02-16T06:45:15.345Z,0.48
2023-02-16T06:47:43.969Z,0.67
2023-02-16T06:50:14.705Z,1.09
2023-02-16T06:52:44.853Z,1.63
2023-02-16T06:55:13.494Z,2.35
2023-02-16T06:57:42.227Z,3.02
2023-02-16T07:00:11.153Z,3.66
2023-02-16T07:02:39.810Z,4.32
2023-02-16T07:05:08.482Z,4.78
2023-02-16T07:07:37.229Z,5.28
2023-02-16T07:10:08.149Z,5.74
2023-02-16T07:12:36.869Z,6.10
2023-02-16T07:15:05.839Z,6.44
2023-02-16T07:17:34.638Z,6.49
2023-02-16T07:20:04.497Z,6.41
2023-02-16T07:22:33.752Z,6.91
2023-02-16T07:25:02.335Z,6.61
2023-02-16T07:27:32.701Z,6.92
2023-02-16T07:30:01.411Z,7.00
2023-02-16T07:32:30.949Z,7.10
2023-02-16T07:34:59.633Z,6.64
2023-02-16T07:37:28.289Z,7.35
2023-02-16T07:39:56.907Z,7.55
2023-02-16T07:42:25.614Z,7.68
2023-02-16T07:44:55.682Z,7.82
2023-02-16T07:47:24.298Z,7.88
2023-02-16T07:49:53.002Z,7.88
2023-02-16T07:52:21.531Z,7.77
2023-02-16T07:54:50.258Z,7.54
2023-02-16T07:57:18.893Z,7.59
2023-02-16T07:59:47.633Z,7.58
2023-02-16T08:12:52.400Z,9.39
2023-02-16T08:15:27.621Z,8.59
2023-02-16T08:17:56.703Z,8.72
2023-02-16T08:20:45.174Z,9.16
2023-02-16T08:23:14.964Z,8.87
2023-02-16T08:25:44.257Z,8.70
2023-02-16T08:28:15.075Z,9.23
2023-02-16T08:30:44.942Z,8.74
2023-02-16T08:33:14.127Z,9.00
2023-02-16T08:35:43.136Z,9.13
2023-02-16T08:38:12.172Z,9.20
2023-02-16T08:40:41.170Z,9.33
2023-02-16T08:43:10.308Z,9.28
2023-02-16T08:45:45.922Z,8.23
2023-02-16T08:48:17.934Z,8.98
2023-02-16T08:50:53.877Z,9.41
2023-02-16T08:53:23.768Z,8.74
2023-02-16T08:55:56.641Z,9.20
2023-02-16T08:58:26.651Z,8.41
2023-02-16T09:00:57.715Z,9.04
2023-02-16T09:03:27.128Z,9.53
2023-02-16T09:05:56.197Z,8.52
2023-02-16T09:08:25.337Z,8.62
2023-02-16T09:10:54.266Z,8.76
2023-02-16T09:13:23.500Z,9.59
2023-02-16T09:15:53.374Z,9.52
2023-02-16T09:18:24.481Z,10.00
2023-02-16T09:20:53.449Z,10.46
2023-02-16T09:23:22.749Z,9.62
2023-02-16T09:25:51.887Z,10.36
2023-02-16T09:28:21.208Z,10.67
2023-02-16T09:30:51.227Z,10.76
2023-02-16T09:33:22.040Z,11.28
2023-02-16T09:35:52.628Z,10.90
2023-02-16T09:38:21.622Z,11.46
2023-02-16T09:40:51.124Z,11.49
2023-02-16T09:43:39.568Z,11.91
2023-02-16T09:46:15.697Z,10.89
2023-02-16T09:48:49.481Z,11.08
2023-02-16T09:51:33.880Z,11.64
2023-02-16T09:54:19.176Z,12.06
2023-02-16T09:56:55.102Z,12.33
2023-02-16T09:59:38.582Z,12.35
2023-02-16T10:02:24.123Z,12.77
2023-02-16T10:05:10.083Z,12.84
2023-02-16T10:07:50.129Z,13.09
2023-02-16T10:10:25.015Z,13.00
2023-02-16T10:12:58.421Z,13.08
2023-02-16T10:15:30.611Z,13.03
2023-02-16T10:18:02.025Z,12.75
2023-02-16T10:20:34.942Z,13.41
2023-02-16T10:23:15.182Z,13.62
2023-02-16T10:25:50.164Z,13.65
2023-02-16T10:28:22.854Z,13.39
2023-02-16T10:30:58.820Z,13.94
2023-02-16T10:33:41.853Z,14.13
2023-02-16T10:36:20.938Z,14.64
2023-02-16T10:38:59.392Z,15.21
2023-02-16T10:41:34.564Z,15.34
2023-02-16T10:44:11.622Z,15.33
2023-02-16T10:46:45.083Z,15.25
2023-02-16T10:49:16.947Z,15.71
2023-02-16T10:51:50.808Z,15.69
2023-02-16T10:54:27.802Z,15.01
2023-02-16T10:57:01.555Z,15.47
2023-02-16T10:59:38.929Z,15.95
2023-02-16T11:02:21.131Z,15.77
2023-02-16T11:04:52.760Z,16.46
2023-02-16T11:07:23.603Z,16.63
2023-02-16T11:09:56.190Z,16.85
2023-02-16T11:12:28.867Z,17.31
2023-02-16T11:15:03.460Z,16.96
2023-02-16T11:17:34.862Z,17.05
2023-02-16T11:20:09.642Z,17.28
2023-02-16T11:22:41.816Z,17.50
2023-02-16T11:25:27.385Z,17.83
2023-02-16T11:27:59.693Z,17.54
2023-02-16T11:30:33.434Z,18.06
2023-02-16T11:33:04.821Z,17.99
2023-02-16T11:35:43.084Z,17.47
2023-02-16T11:38:29.257Z,17.16
2023-02-16T11:41:01.356Z,17.26
2023-02-16T11:43:34.538Z,17.54
2023-02-16T11:46:05.647Z,16.75
2023-02-16T11:48:36.816Z,17.45
2023-02-16T11:51:07.875Z,17.60
2023-02-16T11:53:40.958Z,17.38
2023-02-16T11:56:14.131Z,18.02
2023-02-16T11:58:43.396Z,18.11
2023-02-16T12:01:23.494Z,18.02
2023-02-16T12:04:04.932Z,18.35
2023-02-16T12:06:49.897Z,18.45
2023-02-16T12:09:31.153Z,18.76
2023-02-16T12:12:12.298Z,18.84
2023-02-16T12:14:57.811Z,18.47
2023-02-16T12:17:44.971Z,18.37
2023-02-16T12:20:32.687Z,18.34
2023-02-16T12:23:12.559Z,18.09
2023-02-16T12:25:49.490Z,17.61
2023-02-16T12:28:29.615Z,17.50
2023-02-16T12:31:09.909Z,17.21
2023-02-16T12:33:50.911Z,17.31
2023-02-16T12:36:37.765Z,17.35
2023-02-16T12:39:18.509Z,16.61
2023-02-16T12:42:00.409Z,16.24
2023-02-16T12:44:36.121Z,16.02
2023-02-16T12:47:08.557Z,15.86
2023-02-16T12:49:46.469Z,16.29
2023-02-16T12:52:29.966Z,16.38
2023-02-16T12:55:13.378Z,16.44
2023-02-16T12:57:48.238Z,16.78
2023-02-16T13:00:24.233Z,17.03
2023-02-16T13:02:58.423Z,17.18
2023-02-16T13:05:32.997Z,17.18
2023-02-16T13:08:14.440Z,17.47
2023-02-16T13:10:54.698Z,17.64
2023-02-16T13:13:28.062Z,17.47
2023-02-16T13:16:04.973Z,17.20
2023-02-16T13:18:38.625Z,17.13
2023-02-16T13:21:15.780Z,17.16
2023-02-16T13:23:58.296Z,17.07
2023-02-16T13:26:44.297Z,16.92
2023-02-16T13:29:33.450Z,17.05
2023-02-16T13:32:20.177Z,16.93
2023-02-16T13:35:02.983Z,16.89
2023-02-16T13:37:59.931Z,16.63
2023-02-16T13:41:11.999Z,16.36
2023-02-16T13:43:45.372Z,16.20
2023-02-16T13:46:24.441Z,16.34
2023-02-16T13:48:55.435Z,16.11
2023-02-16T13:51:26.881Z,16.30
2023-02-16T13:53:58.378Z,16.21
2023-02-16T13:56:36.963Z,15.60
2023-02-16T13:59:39.151Z,15.78
2023-02-16T14:02:13.136Z,15.60
2023-02-16T14:05:06.251Z,15.69
2023-02-16T14:07:38.539Z,15.62
2023-02-16T14:10:14.263Z,15.59
2023-02-16T14:12:44.681Z,15.54
2023-02-16T14:15:23.127Z,15.44
2023-02-16T14:17:52.409Z,15.38
2023-02-16T14:20:31.714Z,15.43
2023-02-16T14:23:01.539Z,15.46
2023-02-16T14:25:38.217Z,15.57
2023-02-16T14:28:23.336Z,15.57
2023-02-16T14:30:55.327Z,15.41
2023-02-16T14:33:34.885Z,15.36
2023-02-16T14:36:17.075Z,15.26
2023-02-16T14:38:49.046Z,15.15
2023-02-16T14:41:28.902Z,15.23
2023-02-16T14:44:19.319Z,15.53
2023-02-16T14:46:57.892Z,15.63
2023-02-16T14:49:58.905Z,15.52
2023-02-16T14:53:01.854Z,15.19
2023-02-16T14:56:04.178Z,15.03
2023-02-16T14:58:40.940Z,15.17
2023-02-16T15:01:14.283Z,15.15
2023-02-16T15:03:46.867Z,15.20
2023-02-16T15:06:22.869Z,15.15
2023-02-16T15:08:59.604Z,15.30
2023-02-16T15:11:34.757Z,14.96
2023-02-16T15:14:08.372Z,14.61
2023-02-16T15:16:42.015Z,14.20
2023-02-16T15:19:17.970Z,13.88
2023-02-16T15:21:46.951Z,13.57
2023-02-16T15:24:25.838Z,13.39
2023-02-16T15:27:01.664Z,13.23
2023-02-16T15:29:31.680Z,12.97
2023-02-16T15:32:02.234Z,12.68
2023-02-16T15:34:35.215Z,12.49
2023-02-16T15:37:24.260Z,12.27
2023-02-16T15:40:15.926Z,12.08
2023-02-16T15:42:46.485Z,11.93
2023-02-16T15:45:30.016Z,11.80
2023-02-16T15:48:18.585Z,11.69
2023-02-16T15:50:47.874Z,11.62
2023-02-16T15:53:24.254Z,11.55
2023-02-16T15:55:55.133Z,11.45
2023-02-16T15:58:24.370Z,11.35
2023-02-16T16:00:55.723Z,11.39
2023-02-16T16:03:24.971Z,11.25
2023-02-16T16:06:04.293Z,11.04
2023-02-16T16:08:34.086Z,10.83
2023-02-16T16:11:05.049Z,10.67
2023-02-16T16:13:34.604Z,10.52
2023-02-16T16:16:04.982Z,10.41
2023-02-16T16:18:46.619Z,10.17
2023-02-16T16:21:26.249Z,9.96
2023-02-16T16:24:01.549Z,9.73
2023-02-16T16:26:35.827Z,9.51
2023-02-16T16:29:05.630Z,9.28
2023-02-16T16:31:43.864Z,9.06
2023-02-16T16:34:33.764Z,8.81
2023-02-16T16:37:04.508Z,8.62
2023-02-16T16:39:36.472Z,8.43
2023-02-16T16:42:22.046Z,8.17
2023-02-16T16:45:06.095Z,7.99
2023-02-16T16:47:40.391Z,7.84
2023-02-16T16:50:32.393Z,7.63
2023-02-16T16:53:01.793Z,7.40
2023-02-16T16:55:35.932Z,7.35
2023-02-16T16:58:09.384Z,7.15
2023-02-16T17:00:42.542Z,7.11
2023-02-16T17:03:14.990Z,7.03
2023-02-16T17:05:44.835Z,6.92
2023-02-16T17:08:14.010Z,6.84
2023-02-16T17:10:44.260Z,6.83
2023-02-16T17:13:19.702Z,6.83
2023-02-16T17:15:54.369Z,6.86
2023-02-16T17:18:24.734Z,6.84
2023-02-16T17:20:56.972Z,6.85
2023-02-16T17:23:26.624Z,6.81
2023-02-16T17:25:55.955Z,6.79
2023-02-16T17:28:28.067Z,6.81
2023-02-16T17:30:57.729Z,6.76
2023-02-16T17:33:26.847Z,6.76
2023-02-16T17:35:56.033Z,6.73
2023-02-16T17:38:25.964Z,6.68
2023-02-16T17:40:56.908Z,6.67
2023-02-16T17:43:29.343Z,6.71
2023-02-16T17:46:01.566Z,6.58
2023-02-16T17:48:31.852Z,6.58
2023-02-16T17:51:01.118Z,6.57
2023-02-16T17:53:30.444Z,6.51
2023-02-16T17:55:59.969Z,6.47
2023-02-16T17:58:30.680Z,6.44
2023-02-16T18:01:00.180Z,6.40
2023-02-16T18:03:29.578Z,6.39
2023-02-16T18:05:58.773Z,6.36
2023-02-16T18:08:27.796Z,6.31
2023-02-16T18:11:02.325Z,6.21
2023-02-16T18:13:33.706Z,6.12
2023-02-16T18:16:04.254Z,6.11
2023-02-16T18:18:35.154Z,6.02
2023-02-16T18:21:04.531Z,5.93
2023-02-16T18:23:34.288Z,5.82
2023-02-16T18:26:04.043Z,5.67
2023-02-16T18:28:36.503Z,5.50
2023-02-16T18:31:07.220Z,5.45
2023-02-16T18:33:37.292Z,5.32
2023-02-16T18:36:10.583Z,5.23
2023-02-16T18:38:39.912Z,5.18
2023-02-16T18:41:09.388Z,5.03
2023-02-16T18:43:39.813Z,4.99
2023-02-16T18:46:10.484Z,4.89
2023-02-16T18:48:39.645Z,4.77
2023-02-16T18:51:10.259Z,4.69
2023-02-16T18:53:39.647Z,4.62
2023-02-16T18:56:10.144Z,4.62
2023-02-16T18:58:41.132Z,4.56
2023-02-16T19:01:15.245Z,4.58
2023-02-16T19:03:44.831Z,4.55
2023-02-16T19:06:14.336Z,4.51
2023-02-16T19:08:43.482Z,4.49
2023-02-16T19:11:12.678Z,4.49
2023-02-16T19:13:43.159Z,4.47
2023-02-16T19:16:12.094Z,4.43
2023-02-16T19:18:41.304Z,4.47
2023-02-16T19:21:12.843Z,4.49
2023-02-16T19:23:42.349Z,4.46
2023-02-16T19:26:15.129Z,4.42
2023-02-16T19:28:45.598Z,4.38
2023-02-16T19:31:20.034Z,4.35
2023-02-16T19:33:49.268Z,4.28
2023-02-16T19:36:19.369Z,4.23
2023-02-16T19:38:49.113Z,4.15
2023-02-16T19:41:21.100Z,4.16
2023-02-16T19:43:52.089Z,4.16
2023-02-16T19:46:21.388Z,4.20
2023-02-16T19:48:50.887Z,4.17
2023-02-16T19:51:19.994Z,4.16
2023-02-16T19:53:49.600Z,4.14
2023-02-16T19:56:20.687Z,4.16
2023-02-16T19:58:51.999Z,4.15
2023-02-16T20:01:22.768Z,4.14
2023-02-16T20:03:53.516Z,4.13
2023-02-16T20:06:25.286Z,4.13
2023-02-16T20:08:55.523Z,4.10
2023-02-16T20:11:26.443Z,4.04
2023-02-16T20:13:57.197Z,4.10
2023-02-16T20:16:27.232Z,4.02
2023-02-16T20:18:56.768Z,4.03
2023-02-16T20:21:27.894Z,3.99
2023-02-16T20:23:58.847Z,4.00
2023-02-16T20:26:33.925Z,3.99
2023-02-16T20:29:06.605Z,3.86
2023-02-16T20:31:38.341Z,3.86
2023-02-16T20:34:08.840Z,3.87
2023-02-16T20:36:38.151Z,3.84
2023-02-16T20:39:09.417Z,3.81
2023-02-16T20:41:38.530Z,3.68
2023-02-16T20:44:09.123Z,3.62
2023-02-16T20:46:39.190Z,3.53
2023-02-16T20:49:08.573Z,3.55
2023-02-16T20:51:38.756Z,3.38
2023-02-16T20:54:07.768Z,3.26
2023-02-16T20:56:36.925Z,3.35
2023-02-16T20:59:06.258Z,3.21
2023-02-16T21:01:40.746Z,3.18
2023-02-16T21:04:10.982Z,3.16
2023-02-16T21:06:40.260Z,3.17
2023-02-16T21:09:09.830Z,3.25
2023-02-16T21:11:40.104Z,3.20
2023-02-16T21:14:10.272Z,3.21
2023-02-16T21:16:41.615Z,3.23
2023-02-16T21:19:22.278Z,3.18
2023-02-16T21:21:52.992Z,3.13
2023-02-16T21:24:22.291Z,3.15
2023-02-16T21:26:51.371Z,3.04
2023-02-16T21:29:20.283Z,3.01
2023-02-16T21:31:50.752Z,3.01
2023-02-16T21:34:19.960Z,2.86
2023-02-16T21:36:49.008Z,2.95
2023-02-16T21:39:17.997Z,2.85
2023-02-16T21:41:45.942Z,2.76
2023-02-16T21:44:16.905Z,2.67
2023-02-16T21:46:48.246Z,2.59
2023-02-16T21:49:20.322Z,2.58
2023-02-16T21:51:50.068Z,2.57
2023-02-16T21:54:41.501Z,2.47
2023-02-16T21:57:09.424Z,2.52
2023-02-16T21:59:38.512Z,2.52
2023-02-16T22:02:07.439Z,2.49
2023-02-16T22:04:37.939Z,2.46
2023-02-16T22:07:06.973Z,2.55
2023-02-16T22:09:39.080Z,2.54
2023-02-16T22:12:08.222Z,2.36
2023-02-16T22:14:37.276Z,2.28
2023-02-16T22:17:07.877Z,2.39
2023-02-16T22:19:38.358Z,2.37
2023-02-16T22:22:07.455Z,2.44
2023-02-16T22:24:36.370Z,2.47
2023-02-16T22:27:05.530Z,2.51
2023-02-16T22:29:34.630Z,2.55
2023-02-16T22:32:03.640Z,2.55
2023-02-16T22:34:32.545Z,2.60
2023-02-16T22:37:02.972Z,2.69
2023-02-16T22:39:32.291Z,2.66
2023-02-16T22:42:01.307Z,2.59
2023-02-16T22:44:30.450Z,2.53
2023-02-16T22:46:59.348Z,2.53
2023-02-16T22:49:28.357Z,2.57
2023-02-16T22:51:57.888Z,2.50
2023-02-16T22:54:28.414Z,2.50
2023-02-16T22:56:57.529Z,2.50
2023-02-16T22:59:26.632Z,2.55
2023-02-16T23:01:55.679Z,2.39
2023-02-16T23:04:24.807Z,2.43
2023-02-16T23:06:53.930Z,2.44
2023-02-16T23:09:23.977Z,2.47
2023-02-16T23:11:54.515Z,2.41
2023-02-16T23:14:23.452Z,2.46
2023-02-16T23:16:54.973Z,2.48
2023-02-16T23:19:26.588Z,2.48
2023-02-16T23:21:56.268Z,2.42
2023-02-16T23:24:25.884Z,2.38
2023-02-16T23:26:56.622Z,2.26
2023-02-16T23:29:26.327Z,2.32
2023-02-16T23:31:55.521Z,2.33
2023-02-16T23:34:24.774Z,2.31
2023-02-16T23:36:53.881Z,2.41
2023-02-16T23:39:23.024Z,2.53
2023-02-16T23:41:52.151Z,2.71
2023-02-16T23:44:22.550Z,2.76
2023-02-16T23:46:51.698Z,2.83
2023-02-16T23:49:20.536Z,2.86
2023-02-16T23:51:49.742Z,2.84
2023-02-16T23:54:18.597Z,2.84
2023-02-16T23:56:47.770Z,2.77
2023-02-16T23:59:16.708Z,2.78
